NOO6338 RJFF-RJOM

Flight info

Callsign NOO6338
Flight time 0h 32m
Altitude 15000
Route DGC V28 MARCO ROBIN MYE
Aircraft E145/M-SDFGIRW/S

Departure

Time 2026-04-21 04:50
Airport Fukuoka Airport (RJFF)

Arrival

Time 2026-04-21 05:22
Airport Matsuyama Airport (RJOM)
Time Latitude Longitude Altitude Speed Heading
2026-04-21 04:37 33.59127 130.45030 41 ft 0 kts 60°
2026-04-21 04:43 33.59131 130.45039 41 ft 1 kts 70°
2026-04-21 04:44 33.59125 130.45042 42 ft 1 kts 185°
2026-04-21 04:44 33.59113 130.45027 41 ft 3 kts 227°
2026-04-21 04:44 33.59097 130.44998 41 ft 4 kts 238°
2026-04-21 04:44 33.59070 130.44972 41 ft 5 kts 167°
2026-04-21 04:45 33.59026 130.45003 41 ft 8 kts 150°
2026-04-21 04:45 33.58943 130.45058 41 ft 15 kts 150°
2026-04-21 04:45 33.58843 130.45126 41 ft 16 kts 150°
2026-04-21 04:45 33.58751 130.45187 42 ft 14 kts 149°
2026-04-21 04:46 33.58673 130.45244 41 ft 12 kts 147°
2026-04-21 04:46 33.58599 130.45297 41 ft 13 kts 150°
2026-04-21 04:46 33.58510 130.45354 41 ft 15 kts 151°
2026-04-21 04:46 33.58410 130.45422 41 ft 17 kts 149°
2026-04-21 04:47 33.58298 130.45500 41 ft 19 kts 151°
2026-04-21 04:47 33.58174 130.45583 41 ft 21 kts 150°
2026-04-21 04:47 33.58038 130.45676 41 ft 23 kts 150°
2026-04-21 04:47 33.57893 130.45775 41 ft 25 kts 150°
2026-04-21 04:48 33.57769 130.45860 41 ft 9 kts 149°
2026-04-21 04:48 33.57709 130.45854 41 ft 10 kts 229°
2026-04-21 04:48 33.57673 130.45783 42 ft 10 kts 240°
2026-04-21 04:48 33.57647 130.45721 41 ft 3 kts 270°
2026-04-21 04:49 33.57671 130.45699 42 ft 3 kts 332°
2026-04-21 04:49 33.57674 130.45697 42 ft 0 kts 330°
2026-04-21 04:49 33.57689 130.45686 42 ft 16 kts 330°
2026-04-21 04:50 33.58007 130.45468 42 ft 86 kts 330°
2026-04-21 04:50 33.58696 130.44998 43 ft 137 kts 330°
2026-04-21 04:50 33.59555 130.44395 307 ft 149 kts 329°
2026-04-21 04:50 33.60467 130.43755 843 ft 155 kts 334°
2026-04-21 04:51 33.61432 130.43132 1400 ft 162 kts 333°
2026-04-21 04:51 33.62456 130.42435 1718 ft 185 kts 335°
2026-04-21 04:51 33.63678 130.41615 1860 ft 216 kts 334°
2026-04-21 04:51 33.65076 130.40688 2132 ft 238 kts 337°
2026-04-21 04:52 33.66705 130.40390 2659 ft 243 kts 13°
2026-04-21 04:52 33.68130 130.41295 3641 ft 234 kts 46°
2026-04-21 04:52 33.68879 130.42999 4387 ft 241 kts 72°
2026-04-21 04:52 33.69349 130.44946 5093 ft 245 kts 68°
2026-04-21 04:53 33.69886 130.46890 5776 ft 250 kts 67°
2026-04-21 04:53 33.70443 130.48866 6511 ft 252 kts 66°
2026-04-21 04:53 33.71007 130.50853 7163 ft 257 kts 66°
2026-04-21 04:53 33.71586 130.52896 7800 ft 263 kts 66°
2026-04-21 04:54 33.72183 130.54999 8419 ft 269 kts 66°
2026-04-21 04:54 33.72791 130.57146 9082 ft 273 kts 66°
2026-04-21 04:54 33.73401 130.59297 9673 ft 279 kts 66°
2026-04-21 04:54 33.74032 130.61528 10252 ft 284 kts 66°
2026-04-21 04:55 33.74679 130.63814 10666 ft 297 kts 66°
2026-04-21 04:55 33.75355 130.66205 11035 ft 309 kts 67°
2026-04-21 04:55 33.76053 130.68680 11431 ft 320 kts 67°
2026-04-21 04:55 33.76786 130.71278 11761 ft 332 kts 67°
2026-04-21 04:56 33.77531 130.73923 12144 ft 343 kts 67°
2026-04-21 04:56 33.78300 130.76654 12555 ft 350 kts 66°
2026-04-21 04:56 33.79091 130.79469 13049 ft 355 kts 66°
2026-04-21 04:56 33.79876 130.82262 13517 ft 360 kts 66°
2026-04-21 04:57 33.80687 130.85147 13883 ft 368 kts 67°
2026-04-21 04:57 33.81501 130.88051 14440 ft 369 kts 67°
2026-04-21 04:57 33.82327 130.90997 14795 ft 377 kts 67°
2026-04-21 04:57 33.83171 130.94011 15075 ft 386 kts 68°
2026-04-21 04:58 33.84041 130.97119 15092 ft 396 kts 67°
2026-04-21 04:58 33.84919 131.00266 15096 ft 404 kts 67°
2026-04-21 04:58 33.85825 131.03464 15095 ft 408 kts 66°
2026-04-21 04:58 33.86839 131.06702 15100 ft 412 kts 65°
2026-04-21 04:59 33.87848 131.09937 15098 ft 415 kts 65°
2026-04-21 04:59 33.88859 131.13182 15093 ft 417 kts 65°
2026-04-21 04:59 33.89872 131.16441 15095 ft 417 kts 65°
2026-04-21 04:59 33.90880 131.19685 15090 ft 417 kts 65°
2026-04-21 05:00 33.91893 131.22948 15094 ft 417 kts 65°
2026-04-21 05:00 33.92909 131.26230 15095 ft 417 kts 65°
2026-04-21 05:00 33.94355 131.32983 15094 ft 420 kts 75°
2026-04-21 05:01 33.94944 131.36461 15090 ft 420 kts 75°
2026-04-21 05:01 33.95522 131.39877 15092 ft 420 kts 74°
2026-04-21 05:01 33.96108 131.43337 15093 ft 421 kts 75°
2026-04-21 05:01 33.96687 131.46767 15089 ft 421 kts 75°
2026-04-21 05:02 33.97269 131.50221 15085 ft 421 kts 75°
2026-04-21 05:02 33.97847 131.53657 15093 ft 421 kts 75°
2026-04-21 05:02 33.98426 131.57106 15079 ft 421 kts 75°
2026-04-21 05:02 33.99010 131.60584 15084 ft 420 kts 75°
2026-04-21 05:03 33.99579 131.63988 15073 ft 420 kts 75°
2026-04-21 05:03 34.00161 131.67470 15074 ft 419 kts 75°
2026-04-21 05:03 34.00731 131.70886 15073 ft 419 kts 76°
2026-04-21 05:03 34.01298 131.74300 15086 ft 418 kts 75°
2026-04-21 05:04 34.01872 131.77751 15077 ft 418 kts 75°
2026-04-21 05:04 34.02437 131.81158 15078 ft 418 kts 75°
2026-04-21 05:04 34.03007 131.84605 15078 ft 418 kts 75°
2026-04-21 05:04 34.03574 131.88034 15078 ft 418 kts 75°
2026-04-21 05:05 34.04137 131.91449 15073 ft 418 kts 75°
2026-04-21 05:05 34.04702 131.94881 15078 ft 418 kts 75°
2026-04-21 05:05 34.05267 131.98325 15084 ft 418 kts 75°
2026-04-21 05:05 34.05828 132.01738 15075 ft 418 kts 75°
2026-04-21 05:06 34.06390 132.05176 15084 ft 418 kts 76°
2026-04-21 05:06 34.06945 132.08574 15082 ft 418 kts 75°
2026-04-21 05:06 34.07492 132.12010 15081 ft 419 kts 78°
2026-04-21 05:06 34.07446 132.15550 15077 ft 423 kts 100°
2026-04-21 05:07 34.06508 132.18869 15080 ft 422 kts 115°
2026-04-21 05:07 34.05347 132.22118 15090 ft 422 kts 113°
2026-04-21 05:07 34.04202 132.25371 15072 ft 423 kts 114°
2026-04-21 05:07 34.03059 132.28613 15029 ft 424 kts 114°
2026-04-21 05:08 34.01922 132.31839 14988 ft 409 kts 114°
2026-04-21 05:08 34.00831 132.34929 14547 ft 397 kts 114°
2026-04-21 05:08 33.99755 132.37973 14047 ft 387 kts 112°
2026-04-21 05:08 33.98714 132.40918 13573 ft 379 kts 113°
2026-04-21 05:09 33.97700 132.43780 13320 ft 364 kts 112°
2026-04-21 05:09 33.96737 132.46500 13066 ft 350 kts 112°
2026-04-21 05:09 33.95798 132.49147 12497 ft 335 kts 111°
2026-04-21 05:09 33.94905 132.51665 11855 ft 323 kts 110°
2026-04-21 05:10 33.93953 132.54044 11225 ft 315 kts 124°
2026-04-21 05:10 33.92582 132.56021 10609 ft 306 kts 130°
2026-04-21 05:10 33.91192 132.57945 9971 ft 299 kts 128°
2026-04-21 05:10 33.89844 132.59805 9341 ft 293 kts 128°
2026-04-21 05:11 33.88528 132.61620 8699 ft 287 kts 128°
2026-04-21 05:11 33.87230 132.63437 8047 ft 280 kts 121°
2026-04-21 05:11 33.86520 132.65497 7431 ft 262 kts 90°
2026-04-21 05:11 33.86778 132.67537 6829 ft 242 kts 59°
2026-04-21 05:12 33.87853 132.68953 6227 ft 227 kts 26°
2026-04-21 05:12 33.89350 132.69324 5623 ft 223 kts 353°
2026-04-21 05:12 33.90723 132.68527 5124 ft 222 kts 316°
2026-04-21 05:12 33.91508 132.67029 5021 ft 206 kts 303°
2026-04-21 05:13 33.92190 132.65547 5003 ft 199 kts 304°
2026-04-21 05:13 33.92854 132.64105 4999 ft 194 kts 303°
2026-04-21 05:13 33.93503 132.62697 4997 ft 192 kts 304°
2026-04-21 05:13 33.94296 132.61444 5007 ft 187 kts 322°
2026-04-21 05:14 33.95309 132.60461 5005 ft 187 kts 328°
2026-04-21 05:14 33.96397 132.59576 5005 ft 188 kts 331°
2026-04-21 05:14 33.97515 132.58731 5005 ft 191 kts 332°
2026-04-21 05:14 33.98654 132.57892 5007 ft 194 kts 332°
2026-04-21 05:15 33.99710 132.56818 5010 ft 202 kts 309°
2026-04-21 05:15 34.00227 132.55232 5021 ft 212 kts 279°
2026-04-21 05:15 33.99987 132.53467 5020 ft 221 kts 246°
2026-04-21 05:15 33.98951 132.52071 5024 ft 227 kts 211°
2026-04-21 05:16 33.97446 132.51601 5023 ft 227 kts 173°
2026-04-21 05:16 33.96022 132.52269 5025 ft 220 kts 136°
2026-04-21 05:16 33.94910 132.53551 4989 ft 223 kts 127°
2026-04-21 05:16 33.93849 132.55008 4649 ft 233 kts 128°
2026-04-21 05:17 33.92751 132.56447 4264 ft 232 kts 129°
2026-04-21 05:17 33.91679 132.57838 3919 ft 221 kts 129°
2026-04-21 05:17 33.90695 132.59109 3611 ft 193 kts 129°
2026-04-21 05:17 33.89852 132.60239 3262 ft 169 kts 124°
2026-04-21 05:18 33.89249 132.61295 3090 ft 149 kts 117°
2026-04-21 05:18 33.88700 132.62367 2905 ft 148 kts 117°
2026-04-21 05:18 33.88175 132.63426 2662 ft 151 kts 116°
2026-04-21 05:18 33.87661 132.64531 2467 ft 149 kts 114°
2026-04-21 05:19 33.87188 132.65633 2273 ft 144 kts 112°
2026-04-21 05:19 33.86768 132.66679 2102 ft 137 kts 111°
2026-04-21 05:19 33.86339 132.67705 1927 ft 138 kts 115°
2026-04-21 05:19 33.85868 132.68729 1733 ft 141 kts 116°
2026-04-21 05:20 33.85372 132.69740 1552 ft 142 kts 120°
2026-04-21 05:20 33.84832 132.70747 1361 ft 143 kts 120°
2026-04-21 05:20 33.84285 132.71748 1130 ft 146 kts 121°
2026-04-21 05:20 33.83732 132.72759 919 ft 145 kts 120°
2026-04-21 05:21 33.83118 132.73708 664 ft 144 kts 144°
2026-04-21 05:21 33.82172 132.73862 438 ft 139 kts 202°
2026-04-21 05:21 33.81458 132.73157 327 ft 130 kts 245°
2026-04-21 05:21 33.81391 132.72160 218 ft 124 kts 291°
2026-04-21 05:22 33.81804 132.71239 110 ft 129 kts 313°
2026-04-21 05:22 33.82390 132.70432 29 ft 121 kts 313°
2026-04-21 05:22 33.82860 132.69777 15 ft 84 kts 310°
2026-04-21 05:22 33.83133 132.69394 15 ft 35 kts 311°
2026-04-21 05:23 33.83260 132.69380 14 ft 19 kts 39°
2026-04-21 05:23 33.83269 132.69507 14 ft 19 kts 132°
2026-04-21 05:23 33.83178 132.69635 15 ft 21 kts 131°
2026-04-21 05:23 33.83078 132.69774 15 ft 22 kts 129°
2026-04-21 05:24 33.82973 132.69922 18 ft 23 kts 130°
2026-04-21 05:24 33.82867 132.70070 21 ft 23 kts 131°
2026-04-21 05:24 33.82814 132.70145 23 ft 7 kts 130°
2026-04-21 05:24 33.82789 132.70200 24 ft 7 kts 72°
2026-04-21 05:25 33.82823 132.70248 26 ft 7 kts 40°
2026-04-21 05:25 33.82849 132.70276 27 ft 3 kts 41°
2026-04-21 05:25 33.82865 132.70291 27 ft 0 kts 41°